sensor_id;sensor_type;location;lat;lon;timestamp;pressure;altitude;pressure_sealevel;temperature;humidity
7168;BME280;3625;51.762;14.320;2023-04-02T00:00:17;100001.97;;;4.67;100.00
7168;BME280;3625;51.762;14.320;2023-04-02T00:02:55;100093.50;;;5.05;100.00
7168;BME280;3625;51.762;14.320;2023-04-02T00:05:41;100064.75;;;4.87;100.00
7168;BME280;3625;51.762;14.320;2023-04-02T00:08:37;100104.91;;;5.01;100.00
7168;BME280;3625;51.762;14.320;2023-04-02T00:11:08;100094.41;;;4.97;100.00
7168;BME280;3625;51.762;14.320;2023-04-02T00:13:43;100066.56;;;4.76;100.00
7168;BME280;3625;51.762;14.320;2023-04-02T00:16:20;100112.72;;;5.03;100.00
7168;BME280;3625;51.762;14.320;2023-04-02T00:18:54;100115.44;;;4.92;100.00
7168;BME280;3625;51.762;14.320;2023-04-02T00:21:28;100119.75;;;4.98;100.00
7168;BME280;3625;51.762;14.320;2023-04-02T00:24:01;100098.00;;;4.82;100.00
7168;BME280;3625;51.762;14.320;2023-04-02T00:26:34;100117.19;;;4.88;100.00
7168;BME280;3625;51.762;14.320;2023-04-02T00:29:06;100119.84;;;4.82;100.00
7168;BME280;3625;51.762;14.320;2023-04-02T00:31:41;100098.91;;;4.73;100.00
7168;BME280;3625;51.762;14.320;2023-04-02T00:34:19;100133.78;;;4.92;100.00
7168;BME280;3625;51.762;14.320;2023-04-02T00:36:49;100140.78;;;4.88;100.00
7168;BME280;3625;51.762;14.320;2023-04-02T00:39:23;100144.25;;;4.86;100.00
7168;BME280;3625;51.762;14.320;2023-04-02T00:41:55;100124.25;;;4.73;100.00
7168;BME280;3625;51.762;14.320;2023-04-02T00:44:38;100121.63;;;4.70;100.00
7168;BME280;3625;51.762;14.320;2023-04-02T00:47:18;100153.91;;;4.84;100.00
7168;BME280;3625;51.762;14.320;2023-04-02T00:49:54;100080.69;;;4.47;100.00
7168;BME280;3625;51.762;14.320;2023-04-02T00:52:28;100155.63;;;4.91;100.00
7168;BME280;3625;51.762;14.320;2023-04-02T00:55:04;100168.75;;;4.83;100.00
7168;BME280;3625;51.762;14.320;2023-04-02T00:57:34;100141.72;;;4.72;100.00
7168;BME280;3625;51.762;14.320;2023-04-02T01:00:20;100175.72;;;4.90;100.00
7168;BME280;3625;51.762;14.320;2023-04-02T01:03:28;100167.03;;;4.75;100.00
7168;BME280;3625;51.762;14.320;2023-04-02T01:06:06;100175.81;;;4.66;100.00
7168;BME280;3625;51.762;14.320;2023-04-02T01:08:56;100178.41;;;4.59;100.00
7168;BME280;3625;51.762;14.320;2023-04-02T01:11:54;100164.47;;;4.52;100.00
7168;BME280;3625;51.762;14.320;2023-04-02T01:14:43;100173.25;;;4.40;100.00
7168;BME280;3625;51.762;14.320;2023-04-02T01:17:29;100175.84;;;4.34;100.00
7168;BME280;3625;51.762;14.320;2023-04-02T01:20:46;100202.91;;;4.44;100.00
7168;BME280;3625;51.762;14.320;2023-04-02T01:23:24;100207.28;;;4.34;100.00
7168;BME280;3625;51.762;14.320;2023-04-02T01:26:03;100215.16;;;4.31;100.00
7168;BME280;3625;51.762;14.320;2023-04-02T01:28:55;100188.13;;;4.03;100.00
7168;BME280;3625;51.762;14.320;2023-04-02T01:31:29;100224.75;;;4.28;100.00
7168;BME280;3625;51.762;14.320;2023-04-02T01:34:01;100181.13;;;4.02;100.00
7168;BME280;3625;51.762;14.320;2023-04-02T01:36:38;100229.09;;;4.24;100.00
7168;BME280;3625;51.762;14.320;2023-04-02T01:39:27;100179.38;;;3.94;100.00
7168;BME280;3625;51.762;14.320;2023-04-02T01:42:08;100216.88;;;4.17;100.00
7168;BME280;3625;51.762;14.320;2023-04-02T01:44:47;100238.69;;;4.25;100.00
7168;BME280;3625;51.762;14.320;2023-04-02T01:47:19;100250.03;;;4.24;100.00
7168;BME280;3625;51.762;14.320;2023-04-02T01:49:56;100250.03;;;4.24;100.00
7168;BME280;3625;51.762;14.320;2023-04-02T01:52:35;100261.41;;;4.18;100.00
7168;BME280;3625;51.762;14.320;2023-04-02T01:55:09;100258.78;;;4.22;100.00
7168;BME280;3625;51.762;14.320;2023-04-02T01:57:42;100264.03;;;4.20;100.00
7168;BME280;3625;51.762;14.320;2023-04-02T02:00:16;100257.06;;;4.14;100.00
7168;BME280;3625;51.762;14.320;2023-04-02T02:02:50;100197.69;;;3.77;100.00
7168;BME280;3625;51.762;14.320;2023-04-02T02:05:22;100229.97;;;3.91;100.00
7168;BME280;3625;51.762;14.320;2023-04-02T02:07:55;100272.75;;;4.10;100.00
7168;BME280;3625;51.762;14.320;2023-04-02T02:10:28;100284.09;;;4.15;100.00
7168;BME280;3625;51.762;14.320;2023-04-02T02:13:00;100305.91;;;4.12;100.00
7168;BME280;3625;51.762;14.320;2023-04-02T02:15:33;100298.03;;;4.02;100.00
7168;BME280;3625;51.762;14.320;2023-04-02T02:18:05;100295.41;;;3.96;100.00
7168;BME280;3625;51.762;14.320;2023-04-02T02:20:38;100299.75;;;3.94;100.00
7168;BME280;3625;51.762;14.320;2023-04-02T02:23:09;100311.06;;;3.84;100.00
7168;BME280;3625;51.762;14.320;2023-04-02T02:25:40;100304.09;;;3.81;100.00
7168;BME280;3625;51.762;14.320;2023-04-02T02:28:16;100178.34;;;3.00;100.00
7168;BME280;3625;51.762;14.320;2023-04-02T02:30:50;100336.38;;;3.85;100.00
7168;BME280;3625;51.762;14.320;2023-04-02T02:33:24;100336.38;;;3.78;100.00
7168;BME280;3625;51.762;14.320;2023-04-02T02:36:03;100301.38;;;3.51;100.00
7168;BME280;3625;51.762;14.320;2023-04-02T02:38:50;100350.31;;;3.71;100.00
7168;BME280;3625;51.762;14.320;2023-04-02T02:41:36;100353.75;;;3.67;100.00
7168;BME280;3625;51.762;14.320;2023-04-02T02:44:16;100332.75;;;3.45;100.00
7168;BME280;3625;51.762;14.320;2023-04-02T02:46:52;100367.69;;;3.60;100.00
7168;BME280;3625;51.762;14.320;2023-04-02T02:49:27;100367.66;;;3.59;100.00
7168;BME280;3625;51.762;14.320;2023-04-02T02:52:08;100380.72;;;3.57;100.00
7168;BME280;3625;51.762;14.320;2023-04-02T02:54:59;100247.94;;;2.85;100.00
7168;BME280;3625;51.762;14.320;2023-04-02T02:57:45;100360.63;;;3.42;100.00
7168;BME280;3625;51.762;14.320;2023-04-02T03:00:17;100301.16;;;3.05;100.00
7168;BME280;3625;51.762;14.320;2023-04-02T03:02:50;100401.66;;;3.54;100.00
7168;BME280;3625;51.762;14.320;2023-04-02T03:05:25;100395.53;;;3.52;100.00
7168;BME280;3625;51.762;14.320;2023-04-02T03:07:59;100399.03;;;3.51;100.00
7168;BME280;3625;51.762;14.320;2023-04-02T03:10:38;100371.91;;;3.38;100.00
7168;BME280;3625;51.762;14.320;2023-04-02T03:13:21;100413.00;;;3.53;100.00
7168;BME280;3625;51.762;14.320;2023-04-02T03:16:01;100426.06;;;3.53;100.00
7168;BME280;3625;51.762;14.320;2023-04-02T03:18:43;100384.09;;;3.33;100.00
7168;BME280;3625;51.762;14.320;2023-04-02T03:21:25;100372.72;;;3.25;100.00
7168;BME280;3625;51.762;14.320;2023-04-02T03:24:00;100436.50;;;3.55;100.00
7168;BME280;3625;51.762;14.320;2023-04-02T03:26:38;100395.41;;;3.28;100.00
7168;BME280;3625;51.762;14.320;2023-04-02T03:29:15;100436.47;;;3.46;100.00
7168;BME280;3625;51.762;14.320;2023-04-02T03:31:49;100433.84;;;3.47;100.00
7168;BME280;3625;51.762;14.320;2023-04-02T03:34:28;100441.72;;;3.46;100.00
7168;BME280;3625;51.762;14.320;2023-04-02T03:37:10;100460.88;;;3.46;100.00
7168;BME280;3625;51.762;14.320;2023-04-02T03:39:44;100448.69;;;3.48;100.00
7168;BME280;3625;51.762;14.320;2023-04-02T03:42:20;100452.19;;;3.50;100.00
7168;BME280;3625;51.762;14.320;2023-04-02T03:44:59;100464.38;;;3.48;100.00
7168;BME280;3625;51.762;14.320;2023-04-02T03:47:35;100470.50;;;3.52;100.00
7168;BME280;3625;51.762;14.320;2023-04-02T03:50:16;100435.44;;;3.19;100.00
7168;BME280;3625;51.762;14.320;2023-04-02T03:52:47;100466.94;;;3.40;100.00
7168;BME280;3625;51.762;14.320;2023-04-02T03:55:21;100476.56;;;3.46;100.00
7168;BME280;3625;51.762;14.320;2023-04-02T03:58:00;100475.66;;;3.39;100.00
7168;BME280;3625;51.762;14.320;2023-04-02T04:00:38;100483.53;;;3.44;100.00
7168;BME280;3625;51.762;14.320;2023-04-02T04:03:13;100488.75;;;3.42;100.00
7168;BME280;3625;51.762;14.320;2023-04-02T04:05:51;100472.94;;;3.29;100.00
7168;BME280;3625;51.762;14.320;2023-04-02T04:08:29;100496.56;;;3.41;100.00
7168;BME280;3625;51.762;14.320;2023-04-02T04:11:07;100483.38;;;3.23;100.00
7168;BME280;3625;51.762;14.320;2023-04-02T04:13:46;100516.63;;;3.42;100.00
7168;BME280;3625;51.762;14.320;2023-04-02T04:16:23;100515.75;;;3.41;100.00
7168;BME280;3625;51.762;14.320;2023-04-02T04:19:00;100529.72;;;3.42;100.00
7168;BME280;3625;51.762;14.320;2023-04-02T04:21:34;100535.81;;;3.42;100.00
7168;BME280;3625;51.762;14.320;2023-04-02T04:24:17;100541.06;;;3.44;100.00
7168;BME280;3625;51.762;14.320;2023-04-02T04:26:55;100540.19;;;3.44;100.00
7168;BME280;3625;51.762;14.320;2023-04-02T04:29:39;100542.81;;;3.45;100.00
7168;BME280;3625;51.762;14.320;2023-04-02T04:32:25;100451.69;;;2.86;100.00
7168;BME280;3625;51.762;14.320;2023-04-02T04:35:14;100570.63;;;3.38;100.00
7168;BME280;3625;51.762;14.320;2023-04-02T04:37:49;100562.81;;;3.40;100.00
7168;BME280;3625;51.762;14.320;2023-04-02T04:40:30;100499.75;;;3.00;100.00
7168;BME280;3625;51.762;14.320;2023-04-02T04:43:06;100568.06;;;3.43;100.00
7168;BME280;3625;51.762;14.320;2023-04-02T04:45:42;100576.75;;;3.40;100.00
7168;BME280;3625;51.762;14.320;2023-04-02T04:48:23;100573.22;;;3.32;100.00
7168;BME280;3625;51.762;14.320;2023-04-02T04:51:00;100553.09;;;3.24;100.00
7168;BME280;3625;51.762;14.320;2023-04-02T04:53:32;100596.81;;;3.40;100.00
7168;BME280;3625;51.762;14.320;2023-04-02T04:56:03;100595.97;;;3.42;100.00
7168;BME280;3625;51.762;14.320;2023-04-02T04:58:54;100562.59;;;3.14;100.00
7168;BME280;3625;51.762;14.320;2023-04-02T05:01:33;100609.06;;;3.47;100.00
7168;BME280;3625;51.762;14.320;2023-04-02T05:04:14;100590.63;;;3.32;100.00
7168;BME280;3625;51.762;14.320;2023-04-02T05:06:52;100615.16;;;3.46;100.00
7168;BME280;3625;51.762;14.320;2023-04-02T05:09:31;100616.91;;;3.47;100.00
7168;BME280;3625;51.762;14.320;2023-04-02T05:12:11;100627.38;;;3.49;100.00
7168;BME280;3625;51.762;14.320;2023-04-02T05:14:50;100614.16;;;3.32;100.00
7168;BME280;3625;51.762;14.320;2023-04-02T05:17:30;100447.78;;;2.40;100.00
7168;BME280;3625;51.762;14.320;2023-04-02T05:20:04;100643.09;;;3.49;100.00
7168;BME280;3625;51.762;14.320;2023-04-02T05:22:43;100647.47;;;3.51;100.00
7168;BME280;3625;51.762;14.320;2023-04-02T05:25:23;100648.38;;;3.55;100.00
7168;BME280;3625;51.762;14.320;2023-04-02T05:28:02;100651.94;;;3.61;100.00
7168;BME280;3625;51.762;14.320;2023-04-02T05:30:45;100638.91;;;3.67;100.00
7168;BME280;3625;51.762;14.320;2023-04-02T05:33:23;100663.22;;;3.59;100.00
7168;BME280;3625;51.762;14.320;2023-04-02T05:35:59;100664.13;;;3.59;100.00
7168;BME280;3625;51.762;14.320;2023-04-02T05:38:35;100664.97;;;3.58;100.00
7168;BME280;3625;51.762;14.320;2023-04-02T05:41:19;100678.16;;;3.69;100.00
7168;BME280;3625;51.762;14.320;2023-04-02T05:44:01;100669.38;;;3.61;100.00
7168;BME280;3625;51.762;14.320;2023-04-02T05:46:42;100657.13;;;3.58;100.00
7168;BME280;3625;51.762;14.320;2023-04-02T05:49:20;100682.38;;;3.56;100.00
7168;BME280;3625;51.762;14.320;2023-04-02T05:51:56;100692.06;;;3.62;100.00
7168;BME280;3625;51.762;14.320;2023-04-02T05:54:32;100693.94;;;3.78;100.00
7168;BME280;3625;51.762;14.320;2023-04-02T05:57:12;100703.50;;;3.76;100.00
7168;BME280;3625;51.762;14.320;2023-04-02T05:59:47;100707.97;;;3.86;100.00
7168;BME280;3625;51.762;14.320;2023-04-02T06:02:22;100710.53;;;3.82;100.00
7168;BME280;3625;51.762;14.320;2023-04-02T06:04:58;100714.84;;;3.76;100.00
7168;BME280;3625;51.762;14.320;2023-04-02T06:07:39;100723.53;;;3.74;100.00
7168;BME280;3625;51.762;14.320;2023-04-02T06:10:15;100743.53;;;3.66;100.00
7168;BME280;3625;51.762;14.320;2023-04-02T06:12:53;100726.16;;;3.74;100.00
7168;BME280;3625;51.762;14.320;2023-04-02T06:15:25;100730.41;;;3.61;100.00
7168;BME280;3625;51.762;14.320;2023-04-02T06:18:10;100727.66;;;3.49;100.00
7168;BME280;3625;51.762;14.320;2023-04-02T06:20:43;100738.13;;;3.49;100.00
7168;BME280;3625;51.762;14.320;2023-04-02T06:23:18;100752.03;;;3.48;100.00
7168;BME280;3625;51.762;14.320;2023-04-02T06:25:57;100759.88;;;3.47;100.00
7168;BME280;3625;51.762;14.320;2023-04-02T06:28:38;100754.66;;;3.48;100.00
7168;BME280;3625;51.762;14.320;2023-04-02T06:31:23;100730.03;;;3.28;100.00
7168;BME280;3625;51.762;14.320;2023-04-02T06:33:54;100736.19;;;3.33;100.00
7168;BME280;3625;51.762;14.320;2023-04-02T06:36:26;100772.22;;;3.58;100.00
7168;BME280;3625;51.762;14.320;2023-04-02T06:39:07;100775.72;;;3.59;100.00
7168;BME280;3625;51.762;14.320;2023-04-02T06:41:37;100792.28;;;3.59;100.00
7168;BME280;3625;51.762;14.320;2023-04-02T06:44:30;100809.56;;;3.47;100.00
7168;BME280;3625;51.762;14.320;2023-04-02T06:47:27;100808.78;;;3.52;100.00
7168;BME280;3625;51.762;14.320;2023-04-02T06:50:05;100727.22;;;3.13;100.00
7168;BME280;3625;51.762;14.320;2023-04-02T06:52:42;100788.63;;;3.44;100.00
7168;BME280;3625;51.762;14.320;2023-04-02T06:55:43;100827.25;;;3.67;100.00
7168;BME280;3625;51.762;14.320;2023-04-02T06:58:14;100838.63;;;3.72;100.00
7168;BME280;3625;51.762;14.320;2023-04-02T07:00:46;100833.44;;;3.74;100.00
7168;BME280;3625;51.762;14.320;2023-04-02T07:03:26;100840.47;;;3.78;100.00
7168;BME280;3625;51.762;14.320;2023-04-02T07:06:01;100842.28;;;3.85;100.00
7168;BME280;3625;51.762;14.320;2023-04-02T07:08:32;100835.25;;;3.78;100.00
7168;BME280;3625;51.762;14.320;2023-04-02T07:11:00;100840.50;;;3.83;100.00
7168;BME280;3625;51.762;14.320;2023-04-02T07:13:29;100828.13;;;3.66;100.00
7168;BME280;3625;51.762;14.320;2023-04-02T07:15:59;100856.22;;;3.84;100.00
7168;BME280;3625;51.762;14.320;2023-04-02T07:18:31;100857.06;;;3.80;100.00
7168;BME280;3625;51.762;14.320;2023-04-02T07:21:04;100861.50;;;3.86;100.00
7168;BME280;3625;51.762;14.320;2023-04-02T07:23:33;100864.88;;;3.77;100.00
7168;BME280;3625;51.762;14.320;2023-04-02T07:26:01;100860.56;;;3.82;100.00
7168;BME280;3625;51.762;14.320;2023-04-02T07:28:30;100877.25;;;3.89;100.00
7168;BME280;3625;51.762;14.320;2023-04-02T07:30:59;100861.59;;;3.95;100.00
7168;BME280;3625;51.762;14.320;2023-04-02T07:33:29;100864.13;;;3.87;100.00
7168;BME280;3625;51.762;14.320;2023-04-02T07:35:58;100880.06;;;4.08;100.00
7168;BME280;3625;51.762;14.320;2023-04-02T07:38:26;100880.31;;;4.31;100.00
7168;BME280;3625;51.762;14.320;2023-04-02T07:40:55;100758.25;;;3.58;100.00
7168;BME280;3625;51.762;14.320;2023-04-02T07:43:23;100881.94;;;4.20;100.00
7168;BME280;3625;51.762;14.320;2023-04-02T07:45:52;100823.09;;;3.85;100.00
7168;BME280;3625;51.762;14.320;2023-04-02T07:48:22;100889.94;;;4.35;100.00
7168;BME280;3625;51.762;14.320;2023-04-02T07:50:50;100896.19;;;4.48;100.00
7168;BME280;3625;51.762;14.320;2023-04-02T07:53:28;100898.97;;;4.66;100.00
7168;BME280;3625;51.762;14.320;2023-04-02T07:55:58;100900.66;;;4.58;100.00
7168;BME280;3625;51.762;14.320;2023-04-02T07:58:28;100904.91;;;4.50;100.00
7168;BME280;3625;51.762;14.320;2023-04-02T08:00:57;100915.38;;;4.45;100.00
7168;BME280;3625;51.762;14.320;2023-04-02T08:03:27;100918.00;;;4.50;100.00
7168;BME280;3625;51.762;14.320;2023-04-02T08:05:57;100920.72;;;4.56;100.00
7168;BME280;3625;51.762;14.320;2023-04-02T08:08:26;100894.38;;;4.44;100.00
7168;BME280;3625;51.762;14.320;2023-04-02T08:10:54;100868.75;;;4.11;100.00
7168;BME280;3625;51.762;14.320;2023-04-02T08:13:23;100935.41;;;4.40;100.00
7168;BME280;3625;51.762;14.320;2023-04-02T08:15:52;100923.34;;;4.59;100.00
7168;BME280;3625;51.762;14.320;2023-04-02T08:18:21;100914.63;;;4.60;100.00
7168;BME280;3625;51.762;14.320;2023-04-02T08:20:52;100926.19;;;4.85;100.00
7168;BME280;3625;51.762;14.320;2023-04-02T08:23:21;100936.88;;;5.06;100.00
7168;BME280;3625;51.762;14.320;2023-04-02T08:25:50;100957.97;;;5.18;100.00
7168;BME280;3625;51.762;14.320;2023-04-02T08:28:20;100949.13;;;5.10;100.00
7168;BME280;3625;51.762;14.320;2023-04-02T08:30:49;100923.91;;;5.26;100.00
7168;BME280;3625;51.762;14.320;2023-04-02T08:33:18;100957.13;;;5.25;99.93
7168;BME280;3625;51.762;14.320;2023-04-02T08:35:49;100966.63;;;5.10;100.00
7168;BME280;3625;51.762;14.320;2023-04-02T08:38:21;100935.75;;;4.75;100.00
7168;BME280;3625;51.762;14.320;2023-04-02T08:40:51;100971.56;;;4.78;100.00
7168;BME280;3625;51.762;14.320;2023-04-02T08:44:02;100977.94;;;5.04;100.00
7168;BME280;3625;51.762;14.320;2023-04-02T08:46:43;100973.50;;;4.97;100.00
7168;BME280;3625;51.762;14.320;2023-04-02T08:49:21;100983.91;;;4.88;100.00
7168;BME280;3625;51.762;14.320;2023-04-02T08:51:53;100992.59;;;4.85;100.00
7168;BME280;3625;51.762;14.320;2023-04-02T08:54:26;100994.53;;;5.00;100.00
7168;BME280;3625;51.762;14.320;2023-04-02T08:57:01;100990.94;;;4.92;100.00
7168;BME280;3625;51.762;14.320;2023-04-02T08:59:34;100991.16;;;5.16;100.00
7168;BME280;3625;51.762;14.320;2023-04-02T09:02:27;101005.22;;;5.24;99.34
7168;BME280;3625;51.762;14.320;2023-04-02T09:05:02;100986.69;;;5.05;99.36
7168;BME280;3625;51.762;14.320;2023-04-02T09:07:32;101014.22;;;5.63;98.23
7168;BME280;3625;51.762;14.320;2023-04-02T09:10:03;101015.06;;;5.53;97.88
7168;BME280;3625;51.762;14.320;2023-04-02T09:12:34;101018.66;;;5.67;95.28
7168;BME280;3625;51.762;14.320;2023-04-02T09:15:19;101015.88;;;5.44;95.62
7168;BME280;3625;51.762;14.320;2023-04-02T09:17:59;100986.19;;;5.56;93.24
7168;BME280;3625;51.762;14.320;2023-04-02T09:20:31;101031.22;;;6.23;92.17
7168;BME280;3625;51.762;14.320;2023-04-02T09:22:59;101035.34;;;5.78;92.07
7168;BME280;3625;51.762;14.320;2023-04-02T09:25:30;101038.59;;;5.42;93.39
7168;BME280;3625;51.762;14.320;2023-04-02T09:28:03;101032.75;;;5.83;94.98
7168;BME280;3625;51.762;14.320;2023-04-02T09:30:52;101046.28;;;6.60;91.75
7168;BME280;3625;51.762;14.320;2023-04-02T09:33:43;101038.38;;;6.51;86.66
7168;BME280;3625;51.762;14.320;2023-04-02T09:36:34;101068.59;;;5.81;92.98
7168;BME280;3625;51.762;14.320;2023-04-02T09:39:15;101056.59;;;6.12;92.19
7168;BME280;3625;51.762;14.320;2023-04-02T09:41:46;101054.72;;;5.97;90.41
7168;BME280;3625;51.762;14.320;2023-04-02T09:44:31;101081.25;;;6.39;88.77
7168;BME280;3625;51.762;14.320;2023-04-02T09:47:02;101085.44;;;6.02;91.11
7168;BME280;3625;51.762;14.320;2023-04-02T09:49:34;101089.34;;;5.44;94.17
7168;BME280;3625;51.762;14.320;2023-04-02T09:52:26;101084.97;;;5.46;94.05
7168;BME280;3625;51.762;14.320;2023-04-02T09:55:20;101029.97;;;5.58;93.41
7168;BME280;3625;51.762;14.320;2023-04-02T09:58:06;101089.69;;;5.88;91.64
7168;BME280;3625;51.762;14.320;2023-04-02T10:00:35;101098.69;;;6.21;89.37
7168;BME280;3625;51.762;14.320;2023-04-02T10:03:12;101088.88;;;5.97;88.42
7168;BME280;3625;51.762;14.320;2023-04-02T10:05:46;101100.97;;;5.80;90.23
7168;BME280;3625;51.762;14.320;2023-04-02T10:08:21;101069.41;;;5.69;90.55
7168;BME280;3625;51.762;14.320;2023-04-02T10:10:58;101084.13;;;5.49;91.94
7168;BME280;3625;51.762;14.320;2023-04-02T10:13:36;101110.66;;;5.84;91.79
7168;BME280;3625;51.762;14.320;2023-04-02T10:16:13;101065.03;;;5.68;90.63
7168;BME280;3625;51.762;14.320;2023-04-02T10:18:48;101117.88;;;6.12;87.55
7168;BME280;3625;51.762;14.320;2023-04-02T10:21:23;101124.66;;;5.86;87.81
7168;BME280;3625;51.762;14.320;2023-04-02T10:23:53;101098.88;;;5.38;88.76
7168;BME280;3625;51.762;14.320;2023-04-02T10:26:48;101134.75;;;5.39;89.70
7168;BME280;3625;51.762;14.320;2023-04-02T10:29:55;101120.03;;;5.53;89.08
7168;BME280;3625;51.762;14.320;2023-04-02T10:32:37;101142.91;;;5.69;88.93
7168;BME280;3625;51.762;14.320;2023-04-02T10:35:22;101151.28;;;5.31;90.77
7168;BME280;3625;51.762;14.320;2023-04-02T10:38:23;101146.19;;;5.44;91.72
7168;BME280;3625;51.762;14.320;2023-04-02T10:40:58;101149.44;;;5.21;92.39
7168;BME280;3625;51.762;14.320;2023-04-02T10:43:53;101158.22;;;5.23;93.21
7168;BME280;3625;51.762;14.320;2023-04-02T10:46:53;101161.97;;;5.48;91.92
7168;BME280;3625;51.762;14.320;2023-04-02T10:49:36;101150.25;;;5.14;91.66
7168;BME280;3625;51.762;14.320;2023-04-02T10:52:14;101146.41;;;5.71;89.24
7168;BME280;3625;51.762;14.320;2023-04-02T10:54:49;101158.94;;;5.96;87.90
7168;BME280;3625;51.762;14.320;2023-04-02T10:57:33;101159.81;;;6.00;85.72
7168;BME280;3625;51.762;14.320;2023-04-02T11:00:20;101167.72;;;6.03;83.53
7168;BME280;3625;51.762;14.320;2023-04-02T11:02:57;101157.56;;;6.56;82.70
7168;BME280;3625;51.762;14.320;2023-04-02T11:05:33;101183.97;;;6.79;82.25
7168;BME280;3625;51.762;14.320;2023-04-02T11:08:15;101199.94;;;7.35;76.42
7168;BME280;3625;51.762;14.320;2023-04-02T11:10:52;101190.22;;;7.10;79.60
7168;BME280;3625;51.762;14.320;2023-04-02T11:13:27;101196.38;;;7.12;78.65
7168;BME280;3625;51.762;14.320;2023-04-02T11:15:58;101205.28;;;7.64;76.59
7168;BME280;3625;51.762;14.320;2023-04-02T11:18:30;101206.13;;;7.45;78.97
7168;BME280;3625;51.762;14.320;2023-04-02T11:21:05;101175.44;;;7.42;75.73
7168;BME280;3625;51.762;14.320;2023-04-02T11:23:49;101182.38;;;7.20;73.60
7168;BME280;3625;51.762;14.320;2023-04-02T11:26:41;101212.63;;;6.35;81.14
7168;BME280;3625;51.762;14.320;2023-04-02T11:29:20;101226.09;;;6.88;83.26
7168;BME280;3625;51.762;14.320;2023-04-02T11:32:12;101233.94;;;6.79;79.21
7168;BME280;3625;51.762;14.320;2023-04-02T11:35:03;101232.09;;;6.67;82.64
7168;BME280;3625;51.762;14.320;2023-04-02T11:37:37;101234.88;;;6.93;80.40
7168;BME280;3625;51.762;14.320;2023-04-02T11:40:43;101207.56;;;6.68;81.14
7168;BME280;3625;51.762;14.320;2023-04-02T11:43:51;101238.53;;;7.24;78.53
7168;BME280;3625;51.762;14.320;2023-04-02T11:46:44;101242.88;;;7.14;77.53
7168;BME280;3625;51.762;14.320;2023-04-02T11:49:59;101240.16;;;6.96;78.55
7168;BME280;3625;51.762;14.320;2023-04-02T11:52:34;101248.44;;;6.24;82.51
7168;BME280;3625;51.762;14.320;2023-04-02T11:55:24;101214.09;;;5.99;83.30
7168;BME280;3625;51.762;14.320;2023-04-02T11:58:31;101261.09;;;6.73;83.52
7168;BME280;3625;51.762;14.320;2023-04-02T12:04:53;101272.19;;;6.34;82.78
7168;BME280;3625;51.762;14.320;2023-04-02T12:10:50;101280.09;;;6.37;81.66
7168;BME280;3625;51.762;14.320;2023-04-02T12:13:47;101278.56;;;6.70;80.42
7168;BME280;3625;51.762;14.320;2023-04-02T12:16:21;101268.59;;;6.22;79.25
7168;BME280;3625;51.762;14.320;2023-04-02T12:18:52;101290.44;;;6.18;80.61
7168;BME280;3625;51.762;14.320;2023-04-02T12:21:25;101208.44;;;5.60;81.17
7168;BME280;3625;51.762;14.320;2023-04-02T12:23:57;101278.94;;;6.06;79.96
7168;BME280;3625;51.762;14.320;2023-04-02T12:26:33;101280.59;;;5.95;81.24
7168;BME280;3625;51.762;14.320;2023-04-02T12:29:21;101305.25;;;6.11;81.48
7168;BME280;3625;51.762;14.320;2023-04-02T12:31:51;101301.84;;;6.20;80.70
7168;BME280;3625;51.762;14.320;2023-04-02T12:34:23;101307.97;;;6.19;81.31
7168;BME280;3625;51.762;14.320;2023-04-02T12:36:56;101306.09;;;6.09;81.52
7168;BME280;3625;51.762;14.320;2023-04-02T12:39:32;101309.72;;;6.20;82.36
7168;BME280;3625;51.762;14.320;2023-04-02T12:42:01;101299.34;;;6.36;81.16
7168;BME280;3625;51.762;14.320;2023-04-02T12:44:31;101299.84;;;7.11;78.00
7168;BME280;3625;51.762;14.320;2023-04-02T12:46:59;101283.34;;;7.45;74.67
7168;BME280;3625;51.762;14.320;2023-04-02T12:49:36;101285.00;;;7.16;73.60
7168;BME280;3625;51.762;14.320;2023-04-02T12:52:08;101308.91;;;7.72;72.79
7168;BME280;3625;51.762;14.320;2023-04-02T12:54:45;101315.13;;;7.94;71.05
7168;BME280;3625;51.762;14.320;2023-04-02T12:57:34;101326.50;;;7.76;69.67
7168;BME280;3625;51.762;14.320;2023-04-02T13:00:33;101322.91;;;7.62;69.25
7168;BME280;3625;51.762;14.320;2023-04-02T13:03:25;101322.44;;;6.75;76.60
7168;BME280;3625;51.762;14.320;2023-04-02T13:05:56;101320.78;;;6.90;76.95
7168;BME280;3625;51.762;14.320;2023-04-02T13:08:28;101322.88;;;7.50;74.82
7168;BME280;3625;51.762;14.320;2023-04-02T13:11:03;101332.63;;;7.77;70.60
7168;BME280;3625;51.762;14.320;2023-04-02T13:13:36;101338.75;;;7.68;71.02
7168;BME280;3625;51.762;14.320;2023-04-02T13:16:23;101340.13;;;6.96;74.08
7168;BME280;3625;51.762;14.320;2023-04-02T13:19:20;101307.69;;;6.96;74.76
7168;BME280;3625;51.762;14.320;2023-04-02T13:21:49;101315.91;;;7.66;69.94
7168;BME280;3625;51.762;14.320;2023-04-02T13:24:20;101303.63;;;7.74;68.18
7168;BME280;3625;51.762;14.320;2023-04-02T13:26:55;101327.34;;;7.80;69.39
7168;BME280;3625;51.762;14.320;2023-04-02T13:29:39;101349.38;;;8.00;69.90
7168;BME280;3625;51.762;14.320;2023-04-02T13:32:11;101359.94;;;8.09;68.13
7168;BME280;3625;51.762;14.320;2023-04-02T13:34:40;101358.19;;;8.16;68.35
7168;BME280;3625;51.762;14.320;2023-04-02T13:37:10;101364.31;;;8.01;67.64
7168;BME280;3625;51.762;14.320;2023-04-02T13:39:40;101366.03;;;7.91;68.35
7168;BME280;3625;51.762;14.320;2023-04-02T13:42:11;101351.97;;;7.82;68.52
7168;BME280;3625;51.762;14.320;2023-04-02T13:44:41;101353.56;;;7.43;70.85
7168;BME280;3625;51.762;14.320;2023-04-02T13:47:13;101368.59;;;7.70;69.08
7168;BME280;3625;51.762;14.320;2023-04-02T13:49:42;101365.09;;;7.68;68.69
7168;BME280;3625;51.762;14.320;2023-04-02T13:52:14;101366.84;;;7.72;69.08
7168;BME280;3625;51.762;14.320;2023-04-02T13:54:46;101368.66;;;7.78;67.77
7168;BME280;3625;51.762;14.320;2023-04-02T13:57:18;101363.44;;;7.94;67.11
7168;BME280;3625;51.762;14.320;2023-04-02T13:59:47;101369.69;;;8.36;64.59
7168;BME280;3625;51.762;14.320;2023-04-02T14:02:21;101370.56;;;8.33;62.98
7168;BME280;3625;51.762;14.320;2023-04-02T14:04:59;101379.38;;;8.95;62.08
7168;BME280;3625;51.762;14.320;2023-04-02T14:07:48;101379.31;;;9.27;58.85